Time;durP1;ratioP1;P1;durP2;ratioP2;P2;SDS_P1;SDS_P2;PMS_P1;PMS_P2;Temp;Humidity;BMP_temperature;BMP_pressure;BME280_temperature;BME280_humidity;BME280_pressure;Samples;Min_cycle;Max_cycle;Signal;HPM_P1;HPM_P2
2021/12/09 00:02:20;;;;;;;2.03;1.83;;;22.20;46.20;;;;;;5059621;28;20232;-67
2021/12/09 00:04:47;;;;;;;2.38;2.03;;;22.20;46.20;;;;;;5076459;28;20165;-67
2021/12/09 00:07:14;;;;;;;1.60;1.50;;;22.20;46.20;;;;;;5076234;28;20176;-67
2021/12/09 00:09:40;;;;;;;2.05;1.75;;;22.20;46.30;;;;;;5076094;28;20219;-66
2021/12/09 00:12:08;;;;;;;2.47;1.92;;;22.20;46.30;;;;;;5059411;28;20197;-66
2021/12/09 00:14:35;;;;;;;1.70;1.60;;;22.20;46.30;;;;;;5076059;28;20185;-67
2021/12/09 00:17:10;;;;;;;1.90;1.65;;;22.20;46.30;;;;;;5079759;28;20769;-67
2021/12/09 00:19:37;;;;;;;1.83;1.60;;;22.20;46.30;;;;;;5039236;28;20267;-67
2021/12/09 00:22:11;;;;;;;1.60;1.50;;;22.20;46.30;;;;;;5039629;28;20299;-67
2021/12/09 00:24:37;;;;;;;1.55;1.45;;;22.20;46.30;;;;;;5039612;28;20197;-67
2021/12/09 00:27:04;;;;;;;1.77;1.67;;;22.20;46.30;;;;;;5055814;28;20196;-67
2021/12/09 00:29:31;;;;;;;1.52;1.40;;;22.20;46.30;;;;;;5038871;28;20181;-67
2021/12/09 00:31:57;;;;;;;2.13;1.70;;;22.20;46.30;;;;;;5055798;28;20252;-67
2021/12/09 00:34:30;;;;;;;1.58;1.48;;;22.20;46.20;;;;;;5056080;28;20174;-67
2021/12/09 00:37:03;;;;;;;1.60;1.45;;;22.20;46.20;;;;;;5039331;28;20174;-67
2021/12/09 00:39:29;;;;;;;2.45;1.58;;;22.20;46.30;;;;;;5038757;28;20215;-66
2021/12/09 00:41:55;;;;;;;1.73;1.63;;;22.20;46.20;;;;;;5055673;28;20210;-67
2021/12/09 00:44:21;;;;;;;1.60;1.50;;;22.20;46.30;;;;;;5039171;28;20185;-67
2021/12/09 00:46:48;;;;;;;1.80;1.52;;;22.20;46.20;;;;;;5055775;28;20185;-67
2021/12/09 00:49:14;;;;;;;1.63;1.48;;;22.20;46.20;;;;;;5073037;28;20172;-66
2021/12/09 00:51:40;;;;;;;2.55;1.63;;;22.20;46.30;;;;;;5038830;28;20584;-67
2021/12/09 00:54:06;;;;;;;1.98;1.50;;;22.20;46.20;;;;;;5055250;28;20235;-67
2021/12/09 00:56:31;;;;;;;2.08;1.70;;;22.20;46.30;;;;;;5055328;28;20190;-67
2021/12/09 00:58:57;;;;;;;1.58;1.48;;;22.20;46.30;;;;;;5038697;28;20325;-66
2021/12/09 01:01:24;;;;;;;1.55;1.45;;;22.20;46.30;;;;;;5055263;28;20209;-67
2021/12/09 01:03:50;;;;;;;1.60;1.42;;;22.20;46.40;;;;;;5054847;28;20189;-67
2021/12/09 01:06:16;;;;;;;1.40;1.20;;;22.20;46.30;;;;;;5055070;28;20174;-67
2021/12/09 01:08:43;;;;;;;1.67;1.58;;;22.20;46.30;;;;;;5054822;28;20182;-67
2021/12/09 01:11:12;;;;;;;1.67;1.20;;;22.20;46.40;;;;;;5072853;28;20659;-67
2021/12/09 01:13:39;;;;;;;1.40;1.30;;;22.20;46.30;;;;;;5054907;28;20209;-67
2021/12/09 01:16:06;;;;;;;1.45;1.20;;;22.20;46.40;;;;;;5038278;28;20208;-67
2021/12/09 01:18:33;;;;;;;2.55;1.60;;;22.20;46.40;;;;;;5054904;28;20185;-67
2021/12/09 01:20:59;;;;;;;1.70;1.35;;;22.20;46.40;;;;;;5054876;28;20254;-66
2021/12/09 01:23:24;;;;;;;1.98;1.75;;;22.20;46.40;;;;;;5055134;28;20193;-66
2021/12/09 01:25:58;;;;;;;1.98;1.50;;;22.20;46.40;;;;;;5055216;28;20182;-67
2021/12/09 01:28:27;;;;;;;1.35;1.25;;;22.30;46.40;;;;;;5038379;28;20652;-67
2021/12/09 01:31:00;;;;;;;1.73;1.40;;;22.20;46.30;;;;;;5038343;28;20268;-66
2021/12/09 01:33:26;;;;;;;1.58;1.48;;;22.30;46.40;;;;;;5054545;28;20201;-67
2021/12/09 01:35:52;;;;;;;1.55;1.42;;;22.20;46.30;;;;;;5038001;28;20622;-67
2021/12/09 01:38:18;;;;;;;0.90;0.90;;;22.20;46.40;;;;;;5053846;28;20184;-67
2021/12/09 01:40:45;;;;;;;1.33;1.23;;;22.20;46.40;;;;;;5054456;28;20216;-67
2021/12/09 01:43:13;;;;;;;1.30;1.20;;;22.30;46.40;;;;;;5054353;28;20212;-67
2021/12/09 01:45:40;;;;;;;1.35;1.23;;;22.30;46.40;;;;;;5072361;28;20174;-67
2021/12/09 01:48:06;;;;;;;1.38;1.27;;;22.20;46.40;;;;;;5054194;28;20268;-67
2021/12/09 01:50:33;;;;;;;1.38;1.27;;;22.20;46.40;;;;;;5054744;28;20193;-67
2021/12/09 01:52:59;;;;;;;1.42;1.33;;;22.20;46.40;;;;;;5071587;28;20316;-67
2021/12/09 01:55:26;;;;;;;1.30;1.20;;;22.30;46.50;;;;;;5054399;28;20182;-66
2021/12/09 01:57:53;;;;;;;1.08;0.98;;;22.30;46.40;;;;;;5037716;28;20284;-67
2021/12/09 02:00:26;;;;;;;1.25;1.15;;;22.30;46.40;;;;;;5054622;28;20209;-67
2021/12/09 02:02:52;;;;;;;1.30;1.20;;;22.30;46.40;;;;;;5037609;28;20300;-67
2021/12/09 02:05:19;;;;;;;1.30;1.20;;;22.20;46.40;;;;;;5054173;28;20178;-66
2021/12/09 02:07:45;;;;;;;2.30;1.40;;;22.30;46.40;;;;;;5037734;28;20173;-67
2021/12/09 02:10:17;;;;;;;1.17;1.08;;;22.30;46.40;;;;;;5054188;28;20182;-68
2021/12/09 02:12:46;;;;;;;1.35;1.10;;;22.30;46.40;;;;;;5037558;28;20209;-67
2021/12/09 02:15:12;;;;;;;1.23;1.13;;;22.30;46.40;;;;;;5050905;28;20189;-67
2021/12/09 02:17:38;;;;;;;1.30;1.20;;;22.20;46.30;;;;;;5017549;28;20186;-66
2021/12/09 02:20:07;;;;;;;1.33;1.23;;;22.20;46.20;;;;;;5034461;28;20222;-67
2021/12/09 02:22:34;;;;;;;1.33;1.23;;;22.20;46.30;;;;;;5001678;28;20256;-67
2021/12/09 02:25:00;;;;;;;1.33;1.00;;;22.20;46.30;;;;;;5052059;28;20657;-67
2021/12/09 02:27:26;;;;;;;0.90;0.90;;;22.20;46.30;;;;;;5017711;28;20194;-67
2021/12/09 02:29:55;;;;;;;1.30;1.20;;;22.30;46.40;;;;;;5034162;28;20703;-67
2021/12/09 02:32:22;;;;;;;1.15;1.05;;;22.20;46.20;;;;;;5034342;28;20217;-67
2021/12/09 02:34:48;;;;;;;1.42;1.00;;;22.20;46.30;;;;;;5034021;28;20187;-67
2021/12/09 02:37:14;;;;;;;1.08;0.82;;;22.20;46.30;;;;;;5025311;28;20201;-67
2021/12/09 02:39:43;;;;;;;1.13;1.10;;;22.20;46.20;;;;;;5037364;28;20255;-66
2021/12/09 02:42:10;;;;;;;1.35;1.20;;;22.20;46.30;;;;;;5037342;28;20243;-67
2021/12/09 02:44:37;;;;;;;1.10;1.00;;;22.20;46.30;;;;;;5037163;28;20205;-67
2021/12/09 02:47:03;;;;;;;0.90;0.90;;;22.20;46.30;;;;;;5071871;28;20166;-67
2021/12/09 02:49:31;;;;;;;1.00;1.00;;;22.20;46.30;;;;;;5037145;28;20186;-66
2021/12/09 02:52:00;;;;;;;0.95;0.90;;;22.20;46.30;;;;;;5056830;28;20202;-67
2021/12/09 02:54:27;;;;;;;1.38;1.13;;;22.20;46.30;;;;;;5057638;28;20182;-67
2021/12/09 02:57:02;;;;;;;0.90;0.90;;;22.20;46.40;;;;;;5041277;28;20243;-67
2021/12/09 02:59:29;;;;;;;1.17;1.08;;;22.20;46.40;;;;;;5040819;28;20257;-67
2021/12/09 03:04:22;;;;;;;1.10;1.00;;;22.30;46.50;;;;;;5059046;28;20174;-67
2021/12/09 03:06:50;;;;;;;1.23;1.02;;;22.30;46.50;;;;;;5057377;28;20178;-67
2021/12/09 03:09:18;;;;;;;1.00;0.90;;;22.30;46.50;;;;;;5057373;28;20178;-67
2021/12/09 03:11:52;;;;;;;0.90;0.85;;;22.30;46.50;;;;;;5057311;28;20707;-67
2021/12/09 03:14:19;;;;;;;1.40;1.30;;;22.30;46.60;;;;;;5057010;28;20195;-67
2021/12/09 03:16:45;;;;;;;1.30;1.20;;;22.30;46.60;;;;;;5075151;28;20273;-67
2021/12/09 03:19:11;;;;;;;1.30;1.20;;;22.30;46.60;;;;;;5073744;28;20244;-66
2021/12/09 03:21:41;;;;;;;0.93;0.85;;;22.30;46.60;;;;;;5074252;28;20639;-66
2021/12/09 03:24:13;;;;;;;1.08;0.98;;;22.30;46.60;;;;;;5048140;28;20570;-67
2021/12/09 03:26:54;;;;;;;1.40;1.30;;;22.20;46.50;;;;;;5057038;28;20572;-67
2021/12/09 03:29:22;;;;;;;1.10;1.00;;;22.30;46.60;;;;;;5073490;28;20212;-67
2021/12/09 03:31:52;;;;;;;1.80;1.15;;;22.30;46.60;;;;;;5056991;28;20216;-67
2021/12/09 03:34:20;;;;;;;1.85;1.30;;;22.30;46.70;;;;;;5056749;28;20645;-67
2021/12/09 03:36:49;;;;;;;1.00;0.90;;;22.30;46.60;;;;;;5039922;28;20626;-67
2021/12/09 03:39:21;;;;;;;1.00;1.00;;;22.30;46.70;;;;;;5072885;28;20196;-67
2021/12/09 03:41:53;;;;;;;1.00;1.00;;;22.30;46.70;;;;;;5056347;28;20205;-66
2021/12/09 03:44:20;;;;;;;1.20;1.10;;;22.30;47.30;;;;;;5056624;28;20619;-67
2021/12/09 03:46:47;;;;;;;1.08;0.98;;;22.30;46.70;;;;;;5074564;28;20209;-67
2021/12/09 03:49:13;;;;;;;1.10;1.00;;;22.30;46.70;;;;;;5056665;28;20177;-66
2021/12/09 03:51:39;;;;;;;1.33;1.05;;;22.30;46.70;;;;;;5056865;28;20201;-67
2021/12/09 03:54:09;;;;;;;1.20;1.10;;;22.30;46.70;;;;;;5056585;28;20275;-68
2021/12/09 03:56:37;;;;;;;1.05;0.98;;;22.30;46.80;;;;;;5056281;28;20193;-67
2021/12/09 03:59:06;;;;;;;1.30;1.20;;;22.30;46.70;;;;;;5039568;28;20186;-66
2021/12/09 04:01:33;;;;;;;1.33;1.08;;;22.30;46.80;;;;;;5038816;28;20229;-67
2021/12/09 04:03:59;;;;;;;1.10;1.00;;;22.30;46.80;;;;;;5056247;28;20181;-66
2021/12/09 04:06:29;;;;;;;1.10;1.00;;;22.30;46.80;;;;;;5056526;28;20173;-67
2021/12/09 04:08:56;;;;;;;1.10;1.05;;;22.30;46.70;;;;;;5056055;28;20277;-67
2021/12/09 04:11:22;;;;;;;1.30;1.10;;;22.30;47.40;;;;;;5056069;28;20265;-67
2021/12/09 04:13:47;;;;;;;1.20;1.10;;;22.30;46.70;;;;;;5056284;28;20185;-66
2021/12/09 04:16:14;;;;;;;0.90;0.90;;;22.30;46.70;;;;;;5058861;28;20189;-66
2021/12/09 04:18:42;;;;;;;1.65;0.90;;;22.30;46.70;;;;;;5039553;28;20311;-67
2021/12/09 04:21:08;;;;;;;1.23;1.13;;;22.30;46.80;;;;;;5039700;28;20300;-67
2021/12/09 04:23:35;;;;;;;1.70;1.00;;;22.30;46.70;;;;;;5056223;28;20206;-66
2021/12/09 04:26:01;;;;;;;1.13;1.02;;;22.30;46.70;;;;;;5073836;28;20616;-66
2021/12/09 04:28:28;;;;;;;1.60;1.25;;;22.30;46.70;;;;;;5055586;28;20591;-67
2021/12/09 04:30:54;;;;;;;0.95;0.90;;;22.30;46.70;;;;;;5039117;28;20174;-67
2021/12/09 04:33:20;;;;;;;0.98;0.98;;;22.30;46.70;;;;;;5055733;28;20205;-66
2021/12/09 04:35:45;;;;;;;1.10;1.00;;;22.30;46.70;;;;;;5073596;28;20188;-66
2021/12/09 04:38:11;;;;;;;1.08;0.98;;;22.30;46.70;;;;;;5055430;28;20190;-67
2021/12/09 04:40:38;;;;;;;1.00;0.82;;;22.30;46.70;;;;;;5055839;28;20209;-66
2021/12/09 04:43:04;;;;;;;1.10;1.00;;;22.30;46.70;;;;;;5038866;28;20229;-67
2021/12/09 04:45:33;;;;;;;1.30;1.20;;;22.30;46.80;;;;;;5055753;28;20227;-67
2021/12/09 04:47:59;;;;;;;0.93;0.85;;;22.30;46.70;;;;;;5055363;28;20214;-66
2021/12/09 04:50:25;;;;;;;0.77;0.77;;;22.30;46.70;;;;;;5055416;28;20241;-66
2021/12/09 04:52:52;;;;;;;1.20;1.10;;;22.30;46.70;;;;;;5039056;28;20552;-67
2021/12/09 04:55:17;;;;;;;1.35;1.00;;;22.30;46.70;;;;;;5039090;28;20247;-66
2021/12/09 04:57:44;;;;;;;1.33;1.10;;;22.30;46.70;;;;;;5054933;28;20185;-66
2021/12/09 05:00:16;;;;;;;0.93;0.93;;;22.30;46.80;;;;;;5038335;28;20205;-66
2021/12/09 05:05:32;;;;;;;2.10;1.15;;;22.30;46.70;;;;;;5072992;28;20170;-65
2021/12/09 05:07:58;;;;;;;1.17;1.08;;;22.30;47.40;;;;;;5055233;28;20248;-67
2021/12/09 05:10:24;;;;;;;1.00;1.00;;;22.30;46.70;;;;;;5055086;28;20193;-67
2021/12/09 05:12:49;;;;;;;1.15;1.00;;;22.30;46.70;;;;;;5054673;28;20201;-66
2021/12/09 05:15:15;;;;;;;1.33;1.10;;;22.30;46.70;;;;;;5038022;28;20181;-67
2021/12/09 05:17:41;;;;;;;1.30;1.17;;;22.30;46.70;;;;;;5054979;28;20579;-67
2021/12/09 05:20:07;;;;;;;2.13;1.13;;;22.30;46.70;;;;;;5055111;28;20220;-67
2021/12/09 05:22:33;;;;;;;1.05;0.98;;;22.30;46.60;;;;;;5038593;28;20201;-65
2021/12/09 05:24:59;;;;;;;1.42;1.20;;;22.30;46.70;;;;;;5038192;28;20181;-67
2021/12/09 05:27:25;;;;;;;1.70;1.08;;;22.30;46.80;;;;;;5038354;28;20189;-67
2021/12/09 05:30:03;;;;;;;1.42;1.00;;;22.20;46.60;;;;;;5071263;28;20182;-67
2021/12/09 05:32:31;;;;;;;1.02;0.93;;;22.30;46.70;;;;;;5054693;28;20195;-67
2021/12/09 05:34:57;;;;;;;1.30;1.17;;;22.20;46.60;;;;;;5054681;28;20181;-66
2021/12/09 05:37:25;;;;;;;1.30;1.20;;;22.20;46.60;;;;;;5054489;28;20182;-66
2021/12/09 05:39:55;;;;;;;1.00;0.90;;;22.30;46.70;;;;;;5054860;28;20305;-67
2021/12/09 05:42:23;;;;;;;1.30;1.20;;;22.20;46.60;;;;;;5054513;28;20198;-67
2021/12/09 05:44:49;;;;;;;1.73;1.10;;;22.30;46.60;;;;;;5071221;28;20307;-66
2021/12/09 05:47:15;;;;;;;0.90;0.90;;;22.30;46.60;;;;;;5038196;28;20188;-67
2021/12/09 05:49:45;;;;;;;1.25;1.05;;;22.30;46.60;;;;;;5037623;28;20269;-67
2021/12/09 05:52:13;;;;;;;1.70;1.00;;;22.30;46.60;;;;;;5038082;28;20198;-67
2021/12/09 05:54:38;;;;;;;1.20;1.05;;;22.30;46.70;;;;;;5038072;28;20189;-67
2021/12/09 05:57:05;;;;;;;1.65;1.02;;;22.30;46.60;;;;;;5072197;28;20170;-67
2021/12/09 05:59:31;;;;;;;0.90;0.90;;;22.20;46.50;;;;;;5053957;28;20186;-67
2021/12/09 06:01:58;;;;;;;1.08;0.98;;;22.30;46.60;;;;;;5054129;28;20206;-67
2021/12/09 06:04:24;;;;;;;2.20;1.30;;;22.30;46.60;;;;;;5054614;28;20178;-66
2021/12/09 06:06:51;;;;;;;1.58;1.20;;;22.30;47.20;;;;;;5054528;28;20251;-67
2021/12/09 06:09:18;;;;;;;1.10;1.00;;;22.30;46.60;;;;;;5054312;28;20210;-66
2021/12/09 06:11:46;;;;;;;1.55;1.15;;;22.30;46.60;;;;;;5054420;28;20292;-67
2021/12/09 06:14:13;;;;;;;1.02;1.00;;;22.20;46.50;;;;;;5054465;28;20197;-67
2021/12/09 06:16:39;;;;;;;1.50;1.10;;;22.30;46.60;;;;;;5037704;28;20185;-67
2021/12/09 06:19:06;;;;;;;1.33;1.20;;;22.30;46.60;;;;;;5037600;28;20197;-67
2021/12/09 06:21:31;;;;;;;0.90;0.90;;;22.20;46.50;;;;;;5072172;28;20201;-66
2021/12/09 06:24:02;;;;;;;2.03;1.23;;;22.30;46.60;;;;;;5054214;28;20265;-67
2021/12/09 06:26:31;;;;;;;1.85;1.00;;;22.30;46.60;;;;;;5041373;28;20193;-67
2021/12/09 06:28:58;;;;;;;1.25;1.00;;;22.20;46.50;;;;;;5057759;28;20193;-67
2021/12/09 06:31:24;;;;;;;1.95;1.27;;;22.30;46.60;;;;;;5058274;28;20174;-66
2021/12/09 06:33:51;;;;;;;1.05;0.90;;;22.20;46.50;;;;;;5041272;28;20185;-67
2021/12/09 06:36:17;;;;;;;0.90;0.80;;;22.30;46.60;;;;;;5058020;28;20193;-67
2021/12/09 06:38:44;;;;;;;1.75;1.25;;;22.30;46.60;;;;;;5075615;28;20178;-67
2021/12/09 06:41:10;;;;;;;1.80;1.20;;;22.30;46.60;;;;;;5041358;28;20300;-66
2021/12/09 06:43:40;;;;;;;1.35;0.90;;;22.20;46.50;;;;;;5057823;28;20201;-67
2021/12/09 06:46:10;;;;;;;1.85;1.30;;;22.30;46.60;;;;;;5057932;28;20177;-67
2021/12/09 06:48:37;;;;;;;1.83;0.93;;;22.20;46.50;;;;;;5041098;28;20280;-67
2021/12/09 06:51:05;;;;;;;1.50;1.23;;;22.30;46.50;;;;;;5057977;28;20234;-67
2021/12/09 06:53:36;;;;;;;1.15;0.80;;;22.30;46.50;;;;;;5057550;28;20669;-66
2021/12/09 06:56:04;;;;;;;1.00;0.95;;;22.30;46.60;;;;;;5057975;28;20692;-66
2021/12/09 06:58:29;;;;;;;1.30;0.98;;;22.20;46.40;;;;;;5040757;28;20182;-67
2021/12/09 07:00:57;;;;;;;1.17;1.00;;;22.30;46.50;;;;;;5057495;28;20205;-67
2021/12/09 07:03:23;;;;;;;0.82;0.82;;;22.30;46.50;;;;;;5057475;28;20297;-66
2021/12/09 07:05:54;;;;;;;1.27;1.00;;;22.30;46.60;;;;;;5041006;28;20200;-67
2021/12/09 07:08:21;;;;;;;1.77;0.95;;;22.20;46.40;;;;;;5057223;28;20189;-67
2021/12/09 07:10:48;;;;;;;1.52;1.00;;;22.20;46.40;;;;;;5057545;28;20194;-66
2021/12/09 07:13:14;;;;;;;1.25;1.15;;;22.20;46.50;;;;;;5040876;28;20202;-67
2021/12/09 07:15:41;;;;;;;1.27;0.80;;;22.20;46.50;;;;;;5074867;28;20268;-67
2021/12/09 07:18:06;;;;;;;1.38;1.10;;;22.20;46.40;;;;;;5074986;28;20239;-67
2021/12/09 07:20:33;;;;;;;1.10;1.00;;;22.20;46.40;;;;;;5040451;28;20206;-66
2021/12/09 07:22:59;;;;;;;1.02;0.90;;;22.20;46.40;;;;;;5057254;28;20275;-67
2021/12/09 07:25:28;;;;;;;1.33;1.23;;;22.20;46.40;;;;;;5056452;28;20185;-67
2021/12/09 07:27:55;;;;;;;2.15;1.10;;;22.20;46.40;;;;;;5039853;28;20182;-67
2021/12/09 07:30:24;;;;;;;1.08;0.98;;;22.20;46.40;;;;;;5073497;28;20182;-67
2021/12/09 07:32:50;;;;;;;1.77;1.27;;;22.20;46.40;;;;;;5055697;28;20210;-67
2021/12/09 07:35:17;;;;;;;1.75;1.05;;;22.20;46.40;;;;;;5056370;28;20185;-66
2021/12/09 07:37:44;;;;;;;2.10;1.33;;;22.20;46.30;;;;;;5072161;28;20194;-67
2021/12/09 07:40:18;;;;;;;1.45;1.10;;;22.20;46.40;;;;;;5056994;28;20209;-67
2021/12/09 07:42:44;;;;;;;1.35;1.25;;;22.20;46.30;;;;;;5056828;28;20225;-67
2021/12/09 07:45:11;;;;;;;1.48;1.20;;;22.20;46.30;;;;;;5056713;28;20201;-67
2021/12/09 07:47:38;;;;;;;1.85;1.40;;;22.20;46.30;;;;;;5040036;28;20206;-67
2021/12/09 07:50:08;;;;;;;2.50;1.13;;;22.20;46.30;;;;;;5056415;28;20196;-67
2021/12/09 07:52:34;;;;;;;1.52;1.17;;;22.20;46.30;;;;;;5039704;28;20216;-66
2021/12/09 07:54:59;;;;;;;1.25;1.10;;;22.20;46.40;;;;;;5039970;28;20213;-67
2021/12/09 07:57:25;;;;;;;1.40;1.08;;;22.20;46.30;;;;;;5056551;28;20247;-68
2021/12/09 07:59:51;;;;;;;1.40;1.30;;;22.20;46.20;;;;;;5074248;28;20204;-66
2021/12/09 08:02:17;;;;;;;1.30;1.15;;;22.20;46.30;;;;;;5056402;28;20209;-67
2021/12/09 08:04:43;;;;;;;2.35;1.35;;;22.20;46.90;;;;;;5056556;28;20193;-67
2021/12/09 08:07:09;;;;;;;1.38;1.25;;;22.20;46.30;;;;;;5056106;28;20181;-67
2021/12/09 08:09:35;;;;;;;1.38;1.20;;;22.20;46.20;;;;;;5051619;28;20183;-67
2021/12/09 08:12:00;;;;;;;1.10;1.00;;;22.20;46.20;;;;;;5051970;28;20290;-68
2021/12/09 08:14:26;;;;;;;1.25;1.00;;;22.20;46.20;;;;;;5056105;28;20282;-67
2021/12/09 08:19:36;;;;;;;1.60;1.40;;;22.20;46.20;;;;;;5073492;28;20185;-67
2021/12/09 08:22:02;;;;;;;1.55;1.45;;;22.20;46.20;;;;;;5039541;28;20204;-67
2021/12/09 08:24:28;;;;;;;1.40;1.30;;;22.20;46.10;;;;;;5073628;28;20184;-67
2021/12/09 08:26:54;;;;;;;1.15;1.02;;;22.20;46.20;;;;;;5055789;28;20186;-67
2021/12/09 08:29:19;;;;;;;1.75;1.20;;;22.30;46.30;;;;;;5038921;28;20194;-68
2021/12/09 08:31:45;;;;;;;1.80;1.20;;;22.20;46.10;;;;;;5039083;28;20237;-67
2021/12/09 08:34:11;;;;;;;2.35;1.38;;;22.20;46.10;;;;;;5055870;28;20192;-67
2021/12/09 08:36:37;;;;;;;1.48;1.38;;;22.20;46.00;;;;;;5055706;28;20193;-68
2021/12/09 08:39:05;;;;;;;1.13;1.02;;;22.20;46.10;;;;;;5055442;28;20189;-68
2021/12/09 08:41:31;;;;;;;1.13;1.00;;;22.20;46.10;;;;;;5072372;28;20236;-67
2021/12/09 08:43:57;;;;;;;1.30;1.17;;;22.20;46.20;;;;;;5073278;28;20209;-67
2021/12/09 08:46:23;;;;;;;1.65;1.25;;;22.30;46.30;;;;;;5073114;28;20190;-67
2021/12/09 08:48:48;;;;;;;1.98;1.35;;;22.30;46.20;;;;;;5054699;28;20551;-67
2021/12/09 08:51:15;;;;;;;1.85;1.13;;;22.20;46.10;;;;;;5055521;28;20193;-67
2021/12/09 08:53:42;;;;;;;2.25;1.27;;;22.30;46.20;;;;;;5053686;28;20224;-67
2021/12/09 08:56:08;;;;;;;2.20;1.13;;;22.30;46.20;;;;;;5054832;28;20204;-68
2021/12/09 08:58:34;;;;;;;1.73;1.33;;;22.30;46.20;;;;;;5038533;28;20189;-67
2021/12/09 09:01:01;;;;;;;1.83;1.25;;;22.30;46.20;;;;;;5072674;28;20259;-67
2021/12/09 09:03:27;;;;;;;1.58;1.20;;;22.30;46.20;;;;;;5073071;28;20256;-67
2021/12/09 09:05:53;;;;;;;1.50;1.30;;;22.30;46.10;;;;;;5054986;28;20231;-66
2021/12/09 09:08:19;;;;;;;1.35;1.20;;;22.30;46.10;;;;;;5035184;28;20194;-67
2021/12/09 09:10:46;;;;;;;1.42;1.00;;;22.30;46.20;;;;;;5035298;28;20189;-67
2021/12/09 09:13:14;;;;;;;1.52;1.00;;;22.30;46.20;;;;;;5053363;28;20216;-67
2021/12/09 09:15:40;;;;;;;1.20;1.10;;;22.30;46.10;;;;;;5072307;28;20280;-67
2021/12/09 09:18:07;;;;;;;1.55;1.20;;;22.30;46.20;;;;;;5037692;28;20181;-67
2021/12/09 09:20:39;;;;;;;1.30;1.20;;;22.30;46.20;;;;;;5054708;28;20221;-67
2021/12/09 09:23:09;;;;;;;1.30;1.20;;;22.30;46.20;;;;;;5072791;28;20280;-67
2021/12/09 09:25:35;;;;;;;1.70;1.40;;;22.30;46.10;;;;;;5038062;28;20169;-67
2021/12/09 09:28:02;;;;;;;1.20;1.10;;;22.30;46.10;;;;;;5038046;28;20177;-67
2021/12/09 09:30:35;;;;;;;1.95;1.25;;;22.30;46.10;;;;;;5054886;28;20186;-67
2021/12/09 09:33:05;;;;;;;2.08;1.20;;;22.30;46.10;;;;;;5054498;28;20202;-67
2021/12/09 09:35:32;;;;;;;1.85;1.25;;;22.30;46.10;;;;;;5038279;28;20222;-67
2021/12/09 09:37:58;;;;;;;1.42;1.10;;;22.30;46.20;;;;;;5054740;28;20181;-67
2021/12/09 09:40:28;;;;;;;1.52;1.17;;;22.30;46.10;;;;;;5054556;28;20236;-67
2021/12/09 09:43:02;;;;;;;1.70;1.20;;;22.30;46.20;;;;;;5054459;28;20254;-67
2021/12/09 09:45:29;;;;;;;1.42;1.05;;;22.30;46.10;;;;;;5054702;28;20177;-67
2021/12/09 09:47:56;;;;;;;1.02;1.02;;;22.30;46.10;;;;;;5038036;28;20307;-67
2021/12/09 09:50:24;;;;;;;1.63;1.10;;;22.30;46.10;;;;;;5054491;28;20193;-66
2021/12/09 09:52:49;;;;;;;1.33;1.10;;;22.30;46.10;;;;;;5054456;28;20216;-66
2021/12/09 09:55:20;;;;;;;1.05;0.90;;;22.30;46.10;;;;;;5037971;28;20177;-67
2021/12/09 09:57:49;;;;;;;1.23;1.00;;;22.30;46.10;;;;;;5054393;28;20182;-67
2021/12/09 10:00:16;;;;;;;2.08;1.10;;;22.30;46.10;;;;;;5071457;28;20197;-67
2021/12/09 10:02:43;;;;;;;1.95;1.10;;;22.30;46.10;;;;;;5054302;28;20205;-67
2021/12/09 10:05:09;;;;;;;1.45;1.20;;;22.30;46.10;;;;;;5070983;28;20268;-67
2021/12/09 10:07:36;;;;;;;1.30;1.20;;;22.30;46.20;;;;;;5036997;28;20189;-67
2021/12/09 10:10:05;;;;;;;1.58;1.35;;;22.30;46.10;;;;;;5054199;28;20182;-67
2021/12/09 10:12:31;;;;;;;1.20;1.00;;;22.40;46.20;;;;;;5072128;28;20209;-66
2021/12/09 10:14:57;;;;;;;1.13;1.02;;;22.30;46.10;;;;;;5054243;28;20188;-68
2021/12/09 10:17:27;;;;;;;1.30;1.20;;;22.30;46.10;;;;;;5054237;28;20263;-68
2021/12/09 10:20:00;;;;;;;1.63;1.27;;;22.30;46.10;;;;;;5037122;28;20261;-67
2021/12/09 10:22:34;;;;;;;1.67;1.33;;;22.30;46.10;;;;;;5070119;28;20272;-68
2021/12/09 10:25:15;;;;;;;1.70;1.30;;;22.30;46.10;;;;;;5053928;28;20181;-67
2021/12/09 10:27:45;;;;;;;1.30;1.10;;;22.30;46.20;;;;;;5053945;28;20209;-67
2021/12/09 10:30:16;;;;;;;1.20;1.00;;;22.30;46.20;;;;;;5072340;28;20221;-67
2021/12/09 10:32:44;;;;;;;1.40;1.25;;;22.30;46.10;;;;;;5054107;28;20643;-69
2021/12/09 10:35:20;;;;;;;1.92;1.08;;;22.30;46.10;;;;;;5054220;28;20582;-67
2021/12/09 10:37:51;;;;;;;1.48;1.10;;;22.30;46.00;;;;;;5037463;28;20193;-66
2021/12/09 10:40:30;;;;;;;1.38;1.27;;;22.30;46.10;;;;;;5054168;28;20201;-65
2021/12/09 10:43:03;;;;;;;1.70;1.00;;;22.40;46.10;;;;;;5071818;28;20575;-67
2021/12/09 10:45:37;;;;;;;2.20;1.50;;;22.30;46.00;;;;;;5054177;28;20256;-66
2021/12/09 10:51:08;;;;;;;2.00;1.20;;;22.30;46.10;;;;;;5054160;28;20272;-67
2021/12/09 10:53:47;;;;;;;1.20;1.10;;;22.30;46.10;;;;;;5037252;28;20263;-65
2021/12/09 10:56:24;;;;;;;1.95;1.42;;;22.40;46.10;;;;;;5053864;28;20185;-67
2021/12/09 10:58:50;;;;;;;1.23;1.10;;;22.30;46.00;;;;;;5037270;28;20293;-67
2021/12/09 11:01:23;;;;;;;2.10;0.85;;;22.40;46.00;;;;;;5036899;28;20759;-66
2021/12/09 11:04:03;;;;;;;2.40;1.20;;;22.40;46.10;;;;;;5070559;28;20310;-68
2021/12/09 11:06:34;;;;;;;1.45;1.10;;;22.40;46.20;;;;;;5037232;28;20166;-68
2021/12/09 11:09:06;;;;;;;2.70;1.20;;;22.30;46.00;;;;;;5053586;28;20180;-67
2021/12/09 11:11:40;;;;;;;1.40;1.20;;;22.40;46.20;;;;;;5071134;28;20182;-69
2021/12/09 11:14:21;;;;;;;1.00;0.90;;;22.30;46.10;;;;;;5075313;28;20256;-68
2021/12/09 11:17:04;;;;;;;1.42;1.00;;;22.30;46.10;;;;;;5057302;28;20257;-67
2021/12/09 11:22:11;;;;;;;2.08;1.30;;;22.30;46.10;;;;;;5057250;28;20642;-67
2021/12/09 11:24:44;;;;;;;0.90;0.90;;;22.40;46.20;;;;;;5040766;28;20631;-68
2021/12/09 11:27:22;;;;;;;1.98;1.08;;;22.40;45.70;;;;;;5050460;28;20186;-68
2021/12/09 11:29:53;;;;;;;2.78;1.25;;;22.40;46.00;;;;;;5056815;28;20174;-68
2021/12/09 11:34:57;;;;;;;1.88;1.17;;;22.30;46.10;;;;;;5057247;28;20699;-68
2021/12/09 11:40:06;;;;;;;1.23;1.10;;;22.40;46.10;;;;;;5055135;28;20185;-67
2021/12/09 11:45:12;;;;;;;1.77;1.00;;;22.40;46.20;;;;;;5056978;28;20205;-66
2021/12/09 11:47:44;;;;;;;1.38;1.00;;;22.40;46.20;;;;;;5052802;28;20194;-67
2021/12/09 11:50:24;;;;;;;1.58;1.10;;;22.40;46.00;;;;;;5055988;28;20222;-68
2021/12/09 11:52:53;;;;;;;1.52;1.08;;;22.40;46.00;;;;;;5054560;28;20210;-67
2021/12/09 11:55:27;;;;;;;1.20;0.90;;;22.40;46.00;;;;;;5034444;28;20194;-66
2021/12/09 11:58:01;;;;;;;0.80;0.80;;;22.40;46.00;;;;;;5056196;28;20191;-67
2021/12/09 12:21:11;;;;;;;2.22;0.73;;;22.40;46.00;;;;;;5055979;28;20692;-67
2021/12/09 12:40:44;;;;;;;1.70;0.82;;;22.40;46.10;;;;;;5073535;28;20198;-67
2021/12/09 12:43:33;;;;;;;1.17;0.88;;;22.40;46.10;;;;;;5055802;28;20574;-67
2021/12/09 12:46:31;;;;;;;1.42;0.90;;;22.40;46.10;;;;;;5073466;28;20173;-67
2021/12/09 12:51:35;;;;;;;0.98;0.90;;;22.40;46.00;;;;;;5055488;28;20186;-67
2021/12/09 12:54:39;;;;;;;1.50;0.90;;;22.40;46.10;;;;;;5073023;28;20176;-67
2021/12/09 12:57:15;;;;;;;1.67;0.93;;;22.40;46.20;;;;;;5073103;28;20181;-67
2021/12/09 12:59:46;;;;;;;1.17;1.00;;;22.40;46.10;;;;;;5055231;28;20174;-67
2021/12/09 13:11:24;;;;;;;1.63;1.15;;;22.40;46.10;;;;;;5073054;28;20181;-67
2021/12/09 13:21:38;;;;;;;1.40;1.10;;;22.40;46.00;;;;;;5054745;28;20263;-66
2021/12/09 13:25:17;;;;;;;1.13;1.02;;;22.40;46.10;;;;;;5038689;28;20268;-67
2021/12/09 13:33:38;;;;;;;2.95;1.10;;;22.40;46.10;;;;;;5055194;28;20217;-67
2021/12/09 13:47:36;;;;;;;1.83;1.10;;;22.40;46.00;;;;;;5072399;28;20177;-67
2021/12/09 13:55:25;;;;;;;1.38;1.00;;;22.40;46.00;;;;;;5054937;28;20166;-67
2021/12/09 13:57:57;;;;;;;1.15;0.90;;;22.40;46.10;;;;;;5037470;28;20182;-67
2021/12/09 14:00:26;;;;;;;1.60;1.10;;;22.40;46.00;;;;;;5072502;28;20364;-67
2021/12/09 14:03:14;;;;;;;1.10;1.00;;;22.40;46.00;;;;;;5054137;28;20218;-67
2021/12/09 14:05:54;;;;;;;2.15;1.00;;;22.30;46.00;;;;;;5054125;28;20190;-65
2021/12/09 14:08:47;;;;;;;1.23;1.10;;;22.30;46.00;;;;;;5032718;28;20177;-67
2021/12/09 14:11:30;;;;;;;2.38;1.05;;;22.30;46.00;;;;;;5053897;28;20188;-67
2021/12/09 14:14:10;;;;;;;0.90;0.90;;;22.40;46.10;;;;;;5054346;28;20737;-67
2021/12/09 14:21:37;;;;;;;1.10;1.02;;;22.40;46.10;;;;;;5053662;28;20204;-68
2021/12/09 14:24:15;;;;;;;2.50;1.10;;;22.30;46.10;;;;;;5072016;28;20189;-66
2021/12/09 14:26:57;;;;;;;1.63;1.25;;;22.40;46.10;;;;;;5018552;28;20190;-66
2021/12/09 14:29:26;;;;;;;1.70;1.10;;;22.30;46.00;;;;;;5037380;28;20186;-67
2021/12/09 14:31:57;;;;;;;1.77;1.20;;;22.30;46.00;;;;;;5052976;28;20259;-67
2021/12/09 14:34:27;;;;;;;2.08;1.10;;;22.30;46.00;;;;;;5038719;28;20178;-67
2021/12/09 14:37:03;;;;;;;1.00;0.90;;;22.30;46.00;;;;;;5050549;28;20239;-67
2021/12/09 14:39:29;;;;;;;1.08;1.00;;;22.40;46.10;;;;;;5070657;28;20182;-67
2021/12/09 14:42:17;;;;;;;1.42;1.25;;;22.40;46.10;;;;;;5065919;28;20230;-67
2021/12/09 14:44:59;;;;;;;1.65;1.38;;;22.30;46.00;;;;;;5030931;28;20741;-67